Time;durP1;ratioP1;P1;durP2;ratioP2;P2;SDS_P1;SDS_P2;PMS_P1;PMS_P2;Temp;Humidity;BMP_temperature;BMP_pressure;BME280_temperature;BME280_humidity;BME280_pressure;Samples;Min_cycle;Max_cycle;Signal;HPM_P1;HPM_P2
2023/02/26 00:01:21;;;;;;;6.95;1.92;;;3.20;99.90;;;;;;6223905;23;20012;-94
2023/02/26 00:03:52;;;;;;;12.60;2.15;;;3.20;99.90;;;;;;6262609;23;19985;-91
2023/02/26 00:06:18;;;;;;;11.52;1.73;;;3.20;99.90;;;;;;6246993;23;20039;-93
2023/02/26 00:08:44;;;;;;;13.38;1.98;;;3.20;99.90;;;;;;6244766;23;20019;-88
2023/02/26 00:11:10;;;;;;;12.40;2.00;;;3.20;99.90;;;;;;6245425;23;20015;-91
2023/02/26 00:13:38;;;;;;;12.18;1.88;;;3.20;99.90;;;;;;6267363;22;20027;-94
2023/02/26 00:16:12;;;;;;;10.63;1.50;;;3.20;99.90;;;;;;6255858;23;20069;-95
2023/02/26 00:18:38;;;;;;;12.15;1.85;;;3.20;99.90;;;;;;6255273;23;20008;-95
2023/02/26 00:21:04;;;;;;;13.77;3.75;;;3.10;99.90;;;;;;6259853;23;20010;-94
2023/02/26 00:23:30;;;;;;;7.97;1.70;;;3.20;99.90;;;;;;6251685;23;20016;-94
2023/02/26 00:25:57;;;;;;;13.82;3.30;;;3.20;99.90;;;;;;6222727;23;20012;-94
2023/02/26 00:28:23;;;;;;;13.02;2.53;;;3.20;99.90;;;;;;6224460;23;20004;-94
2023/02/26 00:30:49;;;;;;;12.55;2.38;;;3.10;99.90;;;;;;6222371;23;20012;-93
2023/02/26 00:33:15;;;;;;;15.00;2.10;;;3.10;99.90;;;;;;6221498;23;20000;-94
2023/02/26 00:35:41;;;;;;;16.02;2.15;;;3.10;99.90;;;;;;6222602;23;20206;-93
2023/02/26 00:38:09;;;;;;;6.63;1.63;;;3.10;99.90;;;;;;6225405;23;20008;-94
2023/02/26 00:40:48;;;;;;;14.90;2.72;;;3.20;99.90;;;;;;6253245;23;20000;-93
2023/02/26 00:43:21;;;;;;;12.32;2.28;;;3.20;99.90;;;;;;6218373;23;20105;-94
2023/02/26 00:46:20;;;;;;;6.18;1.83;;;3.20;99.90;;;;;;6254691;23;20031;-94
2023/02/26 00:49:25;;;;;;;10.80;1.77;;;3.20;99.90;;;;;;6257332;23;20180;-92
2023/02/26 00:51:57;;;;;;;12.40;2.10;;;3.20;99.90;;;;;;6187767;23;20031;-94
2023/02/26 00:54:28;;;;;;;9.70;2.38;;;3.20;99.90;;;;;;6259590;23;20015;-92
2023/02/26 00:56:56;;;;;;;9.75;2.53;;;3.10;99.90;;;;;;6234269;23;20004;-94
2023/02/26 00:59:22;;;;;;;19.33;2.88;;;3.20;99.90;;;;;;6255975;23;20374;-95
2023/02/26 01:01:49;;;;;;;14.50;2.45;;;3.10;99.90;;;;;;6255090;23;20011;-94
2023/02/26 01:04:18;;;;;;;12.30;2.67;;;3.10;99.90;;;;;;6252734;23;20083;-93
2023/02/26 01:06:55;;;;;;;10.50;2.28;;;3.10;99.90;;;;;;6221194;23;20285;-94
2023/02/26 01:09:27;;;;;;;14.60;3.15;;;3.10;99.90;;;;;;6249275;23;20008;-95
2023/02/26 01:11:54;;;;;;;9.18;1.63;;;3.10;99.90;;;;;;6236387;23;20019;-93
2023/02/26 01:14:21;;;;;;;9.95;1.80;;;3.10;99.90;;;;;;6255880;23;20008;-93
2023/02/26 01:17:05;;;;;;;19.33;1.88;;;3.00;99.90;;;;;;6245663;23;20416;-89
2023/02/26 01:20:06;;;;;;;9.32;1.67;;;3.00;99.90;;;;;;6219754;23;20023;-92
2023/02/26 01:22:41;;;;;;;;;;;3.00;99.90;;;;;;6247258;23;20031;-93
2023/02/26 01:25:13;;;;;;;8.25;1.75;;;3.10;99.90;;;;;;6220443;23;19915;-93
2023/02/26 01:27:39;;;;;;;12.40;2.05;;;3.00;99.90;;;;;;6248059;23;20012;-95
2023/02/26 01:30:06;;;;;;;7.93;3.22;;;3.10;99.90;;;;;;6248829;23;20031;-93
2023/02/26 01:32:58;;;;;;;9.38;1.67;;;3.00;99.90;;;;;;6223375;23;20019;-94
2023/02/26 01:35:39;;;;;;;14.02;2.45;;;3.10;99.90;;;;;;6248658;23;20412;-94
2023/02/26 01:38:20;;;;;;;7.28;1.70;;;3.10;99.90;;;;;;6247942;23;20012;-93
2023/02/26 01:41:25;;;;;;;16.15;1.85;;;3.10;99.90;;;;;;6247143;23;20010;-92
2023/02/26 01:43:59;;;;;;;15.75;2.47;;;3.00;99.90;;;;;;6247396;23;20355;-95
2023/02/26 01:46:40;;;;;;;8.15;1.95;;;3.10;99.90;;;;;;6230933;23;20020;-91
2023/02/26 01:49:13;;;;;;;10.95;1.80;;;3.10;99.90;;;;;;6256892;23;20004;-94
2023/02/26 01:51:51;;;;;;;10.23;2.15;;;3.10;99.90;;;;;;6227260;23;20008;-94
2023/02/26 01:54:48;;;;;;;7.75;1.75;;;3.10;99.90;;;;;;6248926;23;20087;-93
2023/02/26 01:57:17;;;;;;;9.13;2.05;;;3.10;99.90;;;;;;6258307;23;20011;-93
2023/02/26 01:59:48;;;;;;;10.77;2.45;;;3.10;99.90;;;;;;6226643;23;20015;-93
2023/02/26 02:02:18;;;;;;;9.15;2.15;;;3.10;99.90;;;;;;6251564;23;20387;-94
2023/02/26 02:04:45;;;;;;;5.87;1.90;;;3.10;99.90;;;;;;6256891;23;20004;-93
2023/02/26 02:07:11;;;;;;;11.30;2.65;;;3.10;99.90;;;;;;6231678;23;20265;-94
2023/02/26 02:09:36;;;;;;;16.83;2.00;;;3.10;99.90;;;;;;6265842;23;20000;-93
2023/02/26 02:12:17;;;;;;;7.85;1.80;;;3.10;99.90;;;;;;6256853;23;20444;-95
2023/02/26 02:15:10;;;;;;;11.52;2.25;;;3.10;99.90;;;;;;6250578;23;20000;-93
2023/02/26 02:18:09;;;;;;;12.20;2.05;;;3.10;99.90;;;;;;6223402;23;20004;-94
2023/02/26 02:21:02;;;;;;;3.97;1.52;;;3.10;99.90;;;;;;6225786;23;20027;-94
2023/02/26 02:23:43;;;;;;;10.32;1.60;;;3.10;99.90;;;;;;6243444;23;20008;-94
2023/02/26 02:26:36;;;;;;;10.30;1.65;;;3.20;99.90;;;;;;6249742;23;20012;-94
2023/02/26 02:29:39;;;;;;;9.80;1.70;;;3.10;99.90;;;;;;6247122;23;20004;-95
2023/02/26 02:32:17;;;;;;;7.13;2.00;;;3.20;99.90;;;;;;6255807;23;20000;-93
2023/02/26 02:34:51;;;;;;;11.50;2.25;;;3.20;99.90;;;;;;6257565;23;19996;-93
2023/02/26 02:37:24;;;;;;;10.10;1.70;;;3.20;99.90;;;;;;6257625;23;20007;-95
2023/02/26 02:40:10;;;;;;;11.07;2.25;;;3.20;99.90;;;;;;6257018;23;20004;-95
2023/02/26 02:42:58;;;;;;;13.35;2.20;;;3.20;99.90;;;;;;6265416;23;20000;-94
2023/02/26 02:45:33;;;;;;;8.98;2.15;;;3.20;99.90;;;;;;6236139;23;20024;-93
2023/02/26 02:48:04;;;;;;;4.57;1.63;;;3.20;99.90;;;;;;6265493;23;20019;-93
2023/02/26 02:50:37;;;;;;;6.97;2.00;;;3.20;99.90;;;;;;6229674;23;20011;-93
2023/02/26 02:53:18;;;;;;;5.43;1.52;;;3.20;99.90;;;;;;6254020;23;20004;-92
2023/02/26 02:56:00;;;;;;;10.18;1.85;;;3.20;99.90;;;;;;6251309;23;20083;-96
2023/02/26 02:58:30;;;;;;;11.38;1.50;;;3.20;99.90;;;;;;6255952;23;19996;-94
2023/02/26 03:01:01;;;;;;;8.02;1.85;;;3.20;99.90;;;;;;6256641;23;20004;-95
2023/02/26 03:04:07;;;;;;;8.43;1.55;;;3.20;99.90;;;;;;6261953;23;20016;-95
2023/02/26 03:06:34;;;;;;;16.30;1.98;;;3.10;99.90;;;;;;6264964;23;20070;-93
2023/02/26 03:09:02;;;;;;;8.70;2.25;;;3.10;99.90;;;;;;6262518;23;19996;-95
2023/02/26 03:11:29;;;;;;;8.60;2.03;;;3.10;99.90;;;;;;6232051;23;20450;-94
2023/02/26 03:13:55;;;;;;;12.30;1.70;;;3.00;99.90;;;;;;6256443;23;20031;-91
2023/02/26 03:16:26;;;;;;;10.85;1.80;;;3.00;99.90;;;;;;6232792;23;20027;-95
2023/02/26 03:19:01;;;;;;;12.30;1.55;;;3.00;99.90;;;;;;6260029;23;20063;-95
2023/02/26 03:21:35;;;;;;;11.95;1.98;;;3.00;99.90;;;;;;6263734;23;20000;-94
2023/02/26 03:24:25;;;;;;;14.18;2.72;;;2.90;99.90;;;;;;6267358;23;20060;-92
2023/02/26 03:27:02;;;;;;;8.25;1.70;;;2.90;99.90;;;;;;6266617;23;20008;-95
2023/02/26 03:29:27;;;;;;;13.27;1.92;;;2.90;99.90;;;;;;6237698;23;20075;-95
2023/02/26 03:31:58;;;;;;;11.15;2.67;;;2.90;99.90;;;;;;6262190;23;20489;-95
2023/02/26 03:34:26;;;;;;;;;;;2.90;99.90;;;;;;6274358;22;19995;-92
2023/02/26 03:37:01;;;;;;;7.75;1.85;;;2.90;99.90;;;;;;6266111;23;20298;-94
2023/02/26 03:39:32;;;;;;;11.98;2.00;;;2.90;99.90;;;;;;6261036;23;20004;-95
2023/02/26 03:42:24;;;;;;;11.10;2.67;;;2.90;99.90;;;;;;6265623;23;19992;-94
2023/02/26 03:45:15;;;;;;;13.18;2.30;;;2.90;99.90;;;;;;6268228;23;20004;-94
2023/02/26 03:47:45;;;;;;;9.07;2.10;;;2.90;99.90;;;;;;6253855;23;20014;-93
2023/02/26 03:50:32;;;;;;;12.07;2.20;;;2.90;99.90;;;;;;6245239;23;20008;-95
2023/02/26 03:53:02;;;;;;;18.38;2.10;;;2.90;99.90;;;;;;6245901;23;20008;-95
2023/02/26 03:55:45;;;;;;;9.95;1.70;;;3.00;99.90;;;;;;6247404;22;19995;-93
2023/02/26 03:58:11;;;;;;;8.32;1.92;;;3.00;99.90;;;;;;6242331;23;20008;-93
2023/02/26 04:00:40;;;;;;;11.57;2.00;;;2.90;99.90;;;;;;6275618;22;20000;-88
2023/02/26 04:03:11;;;;;;;9.82;1.60;;;3.00;99.90;;;;;;6273356;23;20008;-94
2023/02/26 04:05:41;;;;;;;14.48;2.85;;;3.00;99.90;;;;;;6268495;23;20011;-94
2023/02/26 04:08:07;;;;;;;10.77;1.90;;;3.00;99.90;;;;;;6263227;23;20000;-94
2023/02/26 04:10:44;;;;;;;7.95;1.60;;;3.00;99.90;;;;;;6242691;23;20024;-92
2023/02/26 04:13:10;;;;;;;9.10;2.05;;;3.00;99.90;;;;;;6269805;23;20019;-94
2023/02/26 04:15:35;;;;;;;5.50;1.50;;;3.00;99.90;;;;;;6274264;23;20004;-92
2023/02/26 04:18:01;;;;;;;12.50;1.85;;;3.00;99.90;;;;;;6269961;22;20012;-92
2023/02/26 04:20:27;;;;;;;8.95;1.73;;;3.00;99.90;;;;;;6259490;23;20000;-93
2023/02/26 04:22:52;;;;;;;7.00;1.42;;;3.00;99.90;;;;;;6231023;23;20038;-94
2023/02/26 04:25:18;;;;;;;12.90;2.22;;;3.00;99.90;;;;;;6267028;23;20020;-93
2023/02/26 04:27:43;;;;;;;16.00;1.98;;;3.00;99.90;;;;;;6268268;23;20000;-94
2023/02/26 04:30:10;;;;;;;11.77;1.70;;;3.00;99.90;;;;;;6262983;23;20004;-94
2023/02/26 04:32:35;;;;;;;7.50;1.45;;;3.00;99.90;;;;;;6262400;23;20004;-94
2023/02/26 04:35:01;;;;;;;9.50;1.65;;;3.00;99.90;;;;;;6258174;23;20008;-94
2023/02/26 04:37:27;;;;;;;15.60;2.20;;;3.00;99.90;;;;;;6229801;23;20008;-92
2023/02/26 04:39:52;;;;;;;12.45;2.47;;;3.00;99.90;;;;;;6232416;23;20003;-94
2023/02/26 04:42:18;;;;;;;12.50;1.95;;;3.00;99.90;;;;;;6233092;23;20004;-94
2023/02/26 04:44:43;;;;;;;11.48;3.35;;;3.00;99.90;;;;;;6251946;23;20003;-95
2023/02/26 04:47:09;;;;;;;11.85;2.03;;;2.90;99.90;;;;;;6223050;23;20074;-93
2023/02/26 04:49:35;;;;;;;11.18;2.17;;;3.00;99.90;;;;;;6222950;23;20001;-94
2023/02/26 04:52:00;;;;;;;9.70;1.70;;;2.90;99.90;;;;;;6225791;23;20004;-94
2023/02/26 04:54:27;;;;;;;14.73;1.85;;;2.80;99.90;;;;;;6226167;23;20008;-94
2023/02/26 04:56:52;;;;;;;8.80;1.90;;;2.80;99.90;;;;;;6225716;23;20011;-93
2023/02/26 04:59:18;;;;;;;9.45;1.33;;;2.80;99.90;;;;;;6224790;23;20004;-94
2023/02/26 05:01:44;;;;;;;5.07;1.58;;;2.80;99.90;;;;;;6252322;23;19996;-94
2023/02/26 05:04:09;;;;;;;13.38;1.67;;;2.80;99.90;;;;;;6251855;23;20059;-94
2023/02/26 05:06:35;;;;;;;19.05;1.95;;;2.80;99.90;;;;;;6226539;23;20020;-92
2023/02/26 05:09:00;;;;;;;11.40;1.90;;;2.80;99.90;;;;;;6227525;23;20047;-94
2023/02/26 05:11:26;;;;;;;15.40;2.58;;;2.90;99.90;;;;;;6226987;23;20521;-95
2023/02/26 05:13:52;;;;;;;11.50;1.58;;;2.90;99.90;;;;;;6227507;23;20023;-94
2023/02/26 05:16:17;;;;;;;19.35;3.53;;;2.90;99.90;;;;;;6227213;23;19996;-93
2023/02/26 05:18:43;;;;;;;6.45;1.67;;;2.90;99.90;;;;;;6226127;23;20008;-94
2023/02/26 05:21:08;;;;;;;18.02;2.83;;;2.90;99.90;;;;;;6227121;23;20462;-96
2023/02/26 05:23:34;;;;;;;12.32;1.73;;;3.00;99.90;;;;;;6254239;23;20023;-94
2023/02/26 05:26:00;;;;;;;11.63;1.63;;;3.00;99.90;;;;;;6264311;23;20012;-92
2023/02/26 05:28:26;;;;;;;15.20;2.10;;;3.00;99.90;;;;;;6268346;23;20019;-95
2023/02/26 05:30:52;;;;;;;16.98;2.60;;;3.00;99.90;;;;;;6245484;23;20036;-92
2023/02/26 05:33:18;;;;;;;11.35;3.03;;;3.00;99.90;;;;;;6267829;23;19996;-94
2023/02/26 05:35:45;;;;;;;20.23;2.50;;;3.10;99.90;;;;;;6261529;23;20023;-94
2023/02/26 05:38:11;;;;;;;10.80;2.25;;;3.00;99.90;;;;;;6259549;23;19996;-93
2023/02/26 05:40:36;;;;;;;12.05;2.10;;;3.00;99.90;;;;;;6230051;23;20011;-94
2023/02/26 05:43:02;;;;;;;9.68;1.88;;;3.00;99.90;;;;;;6229091;23;20005;-94
2023/02/26 05:45:28;;;;;;;8.25;1.95;;;3.00;99.90;;;;;;6229369;23;20076;-95
2023/02/26 05:47:53;;;;;;;9.57;2.08;;;3.10;99.90;;;;;;6257839;23;20523;-94
2023/02/26 05:50:19;;;;;;;18.42;2.60;;;3.10;99.90;;;;;;6231876;23;20008;-94
2023/02/26 05:52:45;;;;;;;10.70;2.42;;;3.10;99.90;;;;;;6250128;23;20023;-93
2023/02/26 05:55:10;;;;;;;9.35;2.10;;;3.10;99.90;;;;;;6223443;23;20440;-94
2023/02/26 05:57:36;;;;;;;9.10;2.15;;;3.10;99.90;;;;;;6259493;23;20000;-95
2023/02/26 06:00:05;;;;;;;9.32;2.35;;;3.00;99.90;;;;;;6262284;23;20000;-95
2023/02/26 06:02:30;;;;;;;10.32;2.20;;;3.00;99.90;;;;;;6264629;23;20031;-92
2023/02/26 06:04:56;;;;;;;6.63;2.63;;;3.00;99.90;;;;;;6240075;23;20027;-95
2023/02/26 06:07:23;;;;;;;15.25;2.45;;;3.00;99.90;;;;;;6242023;23;20003;-95
2023/02/26 06:09:49;;;;;;;9.40;2.08;;;3.00;99.90;;;;;;6268371;23;20000;-93
2023/02/26 06:12:14;;;;;;;8.02;1.83;;;3.10;99.90;;;;;;6255471;23;20019;-95
2023/02/26 06:14:40;;;;;;;6.00;1.90;;;3.00;99.90;;;;;;6226985;23;20056;-94
2023/02/26 06:17:05;;;;;;;17.02;2.80;;;3.00;99.90;;;;;;6229873;23;20011;-93
2023/02/26 06:19:31;;;;;;;11.52;2.17;;;3.00;99.90;;;;;;6231299;23;20019;-94
2023/02/26 06:21:57;;;;;;;11.55;2.17;;;3.00;99.90;;;;;;6251558;23;20351;-93
2023/02/26 06:24:23;;;;;;;12.38;2.55;;;3.00;99.90;;;;;;6230015;23;20011;-94
2023/02/26 06:26:48;;;;;;;11.02;1.85;;;3.00;99.90;;;;;;6261597;23;20008;-95
2023/02/26 06:29:14;;;;;;;10.50;2.15;;;3.00;99.90;;;;;;6235317;23;20028;-93
2023/02/26 06:31:40;;;;;;;11.80;2.10;;;3.00;99.90;;;;;;6228155;23;20004;-94
2023/02/26 06:34:06;;;;;;;17.83;2.25;;;3.00;99.90;;;;;;6250252;23;20007;-93
2023/02/26 06:36:31;;;;;;;9.05;1.73;;;3.00;99.90;;;;;;6250160;23;20090;-95
2023/02/26 06:38:57;;;;;;;12.80;2.05;;;3.00;99.90;;;;;;6223516;23;20012;-93
2023/02/26 06:41:22;;;;;;;17.02;4.18;;;3.10;99.90;;;;;;6249901;23;20423;-94
2023/02/26 06:43:48;;;;;;;15.50;2.25;;;3.10;99.90;;;;;;6222625;23;20459;-95
2023/02/26 06:46:14;;;;;;;10.23;1.75;;;3.00;99.90;;;;;;6249293;23;20064;-92
2023/02/26 06:48:39;;;;;;;8.73;2.00;;;3.10;99.90;;;;;;6223069;23;20083;-95
2023/02/26 06:51:05;;;;;;;13.23;2.10;;;3.00;99.90;;;;;;6224476;23;20004;-94
2023/02/26 06:53:31;;;;;;;8.18;1.85;;;3.10;99.90;;;;;;6225177;23;20000;-94
2023/02/26 06:55:56;;;;;;;12.07;2.22;;;3.00;99.90;;;;;;6224595;23;20087;-94
2023/02/26 06:58:23;;;;;;;10.50;2.22;;;3.10;99.90;;;;;;6224369;23;20000;-93
2023/02/26 07:00:48;;;;;;;10.23;1.80;;;3.10;99.90;;;;;;6250326;23;20155;-94
2023/02/26 07:03:15;;;;;;;11.27;1.80;;;3.10;99.90;;;;;;6249692;23;20004;-94
2023/02/26 07:05:41;;;;;;;12.70;1.80;;;3.10;99.90;;;;;;6224095;23;20403;-93
2023/02/26 07:08:08;;;;;;;15.10;2.92;;;3.10;99.90;;;;;;6224268;23;20012;-93
2023/02/26 07:10:35;;;;;;;16.05;2.25;;;3.10;99.90;;;;;;6229393;23;20015;-93
2023/02/26 07:13:00;;;;;;;9.65;2.08;;;3.00;99.90;;;;;;6235489;23;20016;-95
2023/02/26 07:15:27;;;;;;;10.70;2.15;;;3.10;99.90;;;;;;6246874;23;20068;-94
2023/02/26 07:17:52;;;;;;;8.27;1.95;;;3.10;99.90;;;;;;6273333;22;19984;-93
2023/02/26 07:20:18;;;;;;;11.55;2.45;;;3.10;99.90;;;;;;6241641;23;20000;-91
2023/02/26 07:22:44;;;;;;;11.27;2.05;;;3.10;99.90;;;;;;6244594;23;20027;-93
2023/02/26 07:25:11;;;;;;;9.35;1.92;;;3.00;99.90;;;;;;6247612;23;19999;-96
2023/02/26 07:27:37;;;;;;;8.68;1.80;;;3.10;99.90;;;;;;6247193;23;20026;-95
2023/02/26 07:30:05;;;;;;;13.30;3.50;;;3.10;99.90;;;;;;6272951;23;19996;-93
2023/02/26 07:32:31;;;;;;;8.35;1.83;;;3.10;99.90;;;;;;6247124;23;20055;-93
2023/02/26 07:34:57;;;;;;;15.90;1.83;;;3.10;99.90;;;;;;6245190;23;19993;-94
2023/02/26 07:37:23;;;;;;;12.30;1.75;;;3.10;99.90;;;;;;6270687;23;20020;-89
2023/02/26 07:39:49;;;;;;;18.58;2.28;;;3.10;99.90;;;;;;6245482;23;20000;-94
2023/02/26 07:42:18;;;;;;;14.00;1.73;;;3.10;99.90;;;;;;6243826;23;20008;-92
2023/02/26 07:44:43;;;;;;;9.10;1.50;;;3.20;99.90;;;;;;6241618;23;20019;-91
2023/02/26 07:47:09;;;;;;;15.88;2.15;;;3.20;99.90;;;;;;6244363;23;20008;-90
2023/02/26 07:49:35;;;;;;;7.53;1.30;;;3.20;99.90;;;;;;6248026;22;20003;-92
2023/02/26 07:52:02;;;;;;;19.83;1.95;;;3.20;99.90;;;;;;6238414;23;20008;-92
2023/02/26 07:54:27;;;;;;;14.73;2.00;;;3.20;99.90;;;;;;6236082;23;20080;-94
2023/02/26 07:56:53;;;;;;;9.05;1.52;;;3.30;99.90;;;;;;6238174;23;20004;-94
2023/02/26 07:59:19;;;;;;;14.95;1.65;;;3.30;99.90;;;;;;6234838;23;20032;-91
2023/02/26 08:01:45;;;;;;;12.65;2.15;;;3.30;99.90;;;;;;6270467;23;20000;-91
2023/02/26 08:04:10;;;;;;;11.88;2.72;;;3.40;99.90;;;;;;6245458;23;20091;-93
2023/02/26 08:06:36;;;;;;;13.73;1.83;;;3.40;99.90;;;;;;6265389;23;20066;-94
2023/02/26 08:09:03;;;;;;;6.03;1.48;;;3.40;99.90;;;;;;6262030;23;20024;-93
2023/02/26 08:11:29;;;;;;;15.15;2.00;;;3.50;99.90;;;;;;6231172;23;20012;-92
2023/02/26 08:13:54;;;;;;;14.85;2.45;;;3.50;99.90;;;;;;6226759;23;20037;-92
2023/02/26 08:16:20;;;;;;;10.07;1.80;;;3.50;99.90;;;;;;6231239;23;20008;-87
2023/02/26 08:18:46;;;;;;;12.10;2.30;;;3.60;99.90;;;;;;6235898;23;20004;-92
2023/02/26 08:21:11;;;;;;;12.68;2.15;;;3.60;99.90;;;;;;6238736;23;20011;-92
2023/02/26 08:23:38;;;;;;;12.85;1.92;;;3.70;99.90;;;;;;6267959;23;20027;-92
2023/02/26 08:26:07;;;;;;;11.40;1.90;;;3.70;99.90;;;;;;6270616;23;20008;-90
2023/02/26 08:28:32;;;;;;;17.50;2.08;;;3.70;99.90;;;;;;6241203;23;20441;-93
2023/02/26 08:30:59;;;;;;;13.50;2.10;;;3.70;99.90;;;;;;6267294;23;20006;-90
2023/02/26 08:33:25;;;;;;;20.23;3.45;;;3.70;99.90;;;;;;6272442;22;20008;-90
2023/02/26 08:35:50;;;;;;;12.05;3.65;;;3.80;99.90;;;;;;6242570;23;20015;-91
2023/02/26 08:38:16;;;;;;;12.38;1.35;;;3.90;99.90;;;;;;6271759;23;20004;-92
2023/02/26 08:40:43;;;;;;;15.93;1.70;;;3.90;99.90;;;;;;6246039;23;20019;-93
2023/02/26 08:43:10;;;;;;;19.35;2.70;;;3.90;99.90;;;;;;6273424;23;20022;-91
2023/02/26 08:45:37;;;;;;;15.80;1.63;;;4.00;99.90;;;;;;6268082;22;20020;-93
2023/02/26 08:48:03;;;;;;;16.38;1.80;;;4.10;99.90;;;;;;6231508;23;20020;-92
2023/02/26 08:50:29;;;;;;;11.00;2.00;;;4.20;99.90;;;;;;6223817;23;20014;-92
2023/02/26 08:52:55;;;;;;;17.23;1.60;;;4.30;99.90;;;;;;6250849;23;20052;-94
2023/02/26 08:55:21;;;;;;;10.77;1.35;;;4.30;99.90;;;;;;6222146;23;20000;-94
2023/02/26 08:57:47;;;;;;;14.32;1.77;;;4.40;99.90;;;;;;6221553;23;20390;-91
2023/02/26 09:00:18;;;;;;;15.70;1.90;;;4.50;99.90;;;;;;6195615;23;20066;-93
2023/02/26 09:02:45;;;;;;;11.23;1.50;;;4.60;99.90;;;;;;6248089;23;19997;-93
2023/02/26 09:05:11;;;;;;;6.97;1.35;;;4.70;99.90;;;;;;6249348;23;20004;-93
2023/02/26 09:07:37;;;;;;;13.20;2.05;;;4.80;99.90;;;;;;6222115;23;20012;-88
2023/02/26 09:10:04;;;;;;;17.25;1.63;;;4.90;99.90;;;;;;6249720;23;20023;-93
2023/02/26 09:12:30;;;;;;;22.23;2.85;;;4.90;99.90;;;;;;6248827;23;20521;-93
2023/02/26 09:14:57;;;;;;;14.23;1.73;;;5.00;99.90;;;;;;6249600;23;20004;-94
2023/02/26 09:17:24;;;;;;;15.57;2.03;;;5.10;99.90;;;;;;6249198;23;20007;-92
2023/02/26 09:19:50;;;;;;;8.63;1.60;;;5.30;99.90;;;;;;6248381;23;20004;-93
2023/02/26 09:22:16;;;;;;;5.82;1.58;;;5.40;99.90;;;;;;6249484;23;20011;-94
2023/02/26 09:24:42;;;;;;;17.60;1.88;;;5.60;99.90;;;;;;6222077;23;20436;-95
2023/02/26 09:27:08;;;;;;;12.00;1.70;;;5.80;99.90;;;;;;6248007;23;20012;-94
2023/02/26 09:29:34;;;;;;;12.23;1.70;;;5.80;99.90;;;;;;6221062;23;20016;-93
2023/02/26 09:32:00;;;;;;;14.63;1.92;;;5.80;99.90;;;;;;6220611;23;20035;-92
2023/02/26 09:34:26;;;;;;;11.57;1.48;;;5.90;99.90;;;;;;6221205;23;20008;-94
2023/02/26 09:36:52;;;;;;;10.43;2.03;;;6.00;99.90;;;;;;6217114;23;20320;-93
2023/02/26 09:39:18;;;;;;;12.38;2.15;;;6.10;99.90;;;;;;6220634;23;20070;-93
2023/02/26 09:41:50;;;;;;;15.32;2.00;;;6.20;99.90;;;;;;6251023;23;20320;-92
2023/02/26 09:44:27;;;;;;;20.40;2.10;;;6.20;99.90;;;;;;6251404;23;20435;-92
2023/02/26 09:47:18;;;;;;;15.52;2.00;;;6.20;99.90;;;;;;6251740;23;20016;-89
2023/02/26 09:50:06;;;;;;;;;;;6.30;99.90;;;;;;6232074;23;20031;-92
2023/02/26 09:53:02;;;;;;;11.35;1.73;;;6.30;99.90;;;;;;6231032;23;19899;-91
2023/02/26 09:55:42;;;;;;;10.15;2.08;;;6.50;99.90;;;;;;6257967;23;20074;-94
2023/02/26 09:58:28;;;;;;;9.10;1.93;;;6.90;99.90;;;;;;6230805;23;20011;-92
2023/02/26 10:00:59;;;;;;;13.57;2.60;;;7.30;99.90;;;;;;6253347;23;20770;-92
2023/02/26 10:04:04;;;;;;;14.77;2.15;;;7.50;99.90;;;;;;6251436;23;20000;-92
2023/02/26 10:07:14;;;;;;;15.48;3.28;;;7.70;99.90;;;;;;6202915;23;20012;-90
2023/02/26 10:09:56;;;;;;;11.95;2.20;;;7.80;99.90;;;;;;6204869;23;20097;-91
2023/02/26 10:12:25;;;;;;;7.78;1.80;;;7.90;99.90;;;;;;6217900;23;20324;-91
2023/02/26 10:15:23;;;;;;;16.67;2.88;;;8.20;99.90;;;;;;6221127;23;20042;-92
2023/02/26 10:18:04;;;;;;;7.93;1.70;;;8.50;99.90;;;;;;6244776;23;19996;-92
2023/02/26 10:20:38;;;;;;;17.23;1.80;;;8.80;99.90;;;;;;6219284;23;20008;-93
2023/02/26 10:23:20;;;;;;;20.15;2.13;;;8.90;99.90;;;;;;6259260;23;20013;-91
2023/02/26 10:26:02;;;;;;;16.42;1.92;;;8.80;99.90;;;;;;6254064;23;20015;-94
2023/02/26 10:28:33;;;;;;;12.63;2.35;;;8.60;99.90;;;;;;6251240;23;20000;-94
2023/02/26 10:31:06;;;;;;;11.88;1.90;;;8.20;99.90;;;;;;6224625;23;20342;-94
2023/02/26 10:33:52;;;;;;;16.55;2.03;;;8.00;99.90;;;;;;6250119;23;20050;-93
2023/02/26 10:36:21;;;;;;;10.73;1.77;;;7.70;99.90;;;;;;6223350;23;20055;-94
2023/02/26 10:38:51;;;;;;;13.40;2.88;;;7.60;99.90;;;;;;6221793;23;20107;-95
2023/02/26 10:41:20;;;;;;;12.20;1.80;;;7.50;99.90;;;;;;6230188;23;20005;-93
2023/02/26 10:44:12;;;;;;;14.40;1.70;;;7.40;99.90;;;;;;6254942;23;20000;-94
2023/02/26 10:46:41;;;;;;;12.18;1.80;;;7.30;99.90;;;;;;6227804;23;20020;-94
2023/02/26 10:49:18;;;;;;;7.68;1.95;;;7.10;99.90;;;;;;6249371;23;20004;-95
2023/02/26 10:51:45;;;;;;;13.77;2.33;;;7.10;99.90;;;;;;6222238;23;20009;-93
2023/02/26 10:54:20;;;;;;;19.65;2.15;;;6.90;99.90;;;;;;6224447;23;20087;-93
2023/02/26 10:56:46;;;;;;;11.20;1.80;;;6.80;99.90;;;;;;6249930;23;20036;-95
2023/02/26 10:59:12;;;;;;;17.45;2.10;;;6.80;99.90;;;;;;6250027;23;20011;-94
2023/02/26 11:01:38;;;;;;;9.25;1.30;;;6.70;99.90;;;;;;6253997;23;20060;-93
2023/02/26 11:04:33;;;;;;;6.75;1.42;;;6.80;99.90;;;;;;6244554;23;20052;-88
2023/02/26 11:07:01;;;;;;;14.07;2.00;;;7.00;99.90;;;;;;6203800;23;20008;-94
2023/02/26 11:09:53;;;;;;;8.55;1.27;;;7.10;99.90;;;;;;6244795;22;19992;-88
2023/02/26 11:12:22;;;;;;;12.63;2.10;;;7.40;99.90;;;;;;6237364;23;20017;-91
2023/02/26 11:14:49;;;;;;;13.15;2.15;;;7.60;99.90;;;;;;6220617;23;20008;-93
2023/02/26 11:17:26;;;;;;;16.10;1.70;;;7.80;99.90;;;;;;6246316;23;19996;-93
2023/02/26 11:20:14;;;;;;;8.00;1.60;;;7.70;99.90;;;;;;6259208;23;20003;-91
2023/02/26 11:22:46;;;;;;;7.70;1.50;;;7.70;99.90;;;;;;6222099;23;20075;-92
2023/02/26 11:25:19;;;;;;;7.78;1.60;;;7.60;99.90;;;;;;6246294;23;20011;-94
2023/02/26 11:27:48;;;;;;;11.95;1.45;;;7.50;99.90;;;;;;6245884;23;20167;-91
2023/02/26 11:30:18;;;;;;;13.13;2.35;;;7.40;99.90;;;;;;6218825;23;20091;-93
2023/02/26 11:32:48;;;;;;;11.60;1.58;;;7.30;99.90;;;;;;6220167;23;20012;-92
2023/02/26 11:35:16;;;;;;;9.68;1.90;;;7.10;99.90;;;;;;6221646;23;20015;-93
2023/02/26 11:37:57;;;;;;;10.27;2.22;;;7.10;99.90;;;;;;6221493;23;20008;-93
2023/02/26 11:40:45;;;;;;;10.98;1.85;;;7.10;99.90;;;;;;6221368;23;20339;-92
2023/02/26 11:43:18;;;;;;;13.23;2.40;;;7.00;99.90;;;;;;6246731;23;20218;-93
2023/02/26 11:45:47;;;;;;;11.60;1.95;;;7.00;99.90;;;;;;6247018;23;20012;-92
2023/02/26 11:48:19;;;;;;;8.43;2.47;;;7.00;99.90;;;;;;6220971;23;20050;-94
2023/02/26 11:50:48;;;;;;;21.25;2.45;;;7.00;99.90;;;;;;6220077;23;20038;-93
2023/02/26 11:53:23;;;;;;;8.68;1.83;;;7.00;99.90;;;;;;6220315;23;20008;-94
2023/02/26 11:55:57;;;;;;;13.60;3.00;;;7.00;99.90;;;;;;6221204;23;20032;-91
2023/02/26 11:58:24;;;;;;;7.80;2.70;;;7.20;99.90;;;;;;6220754;23;20038;-93
2023/02/26 12:00:56;;;;;;;8.50;2.65;;;7.30;99.90;;;;;;6247733;23;20078;-92
2023/02/26 12:03:27;;;;;;;14.52;2.38;;;7.30;99.90;;;;;;6220194;23;20004;-93
2023/02/26 12:05:54;;;;;;;13.85;2.53;;;7.40;99.90;;;;;;6246307;23;20367;-93
2023/02/26 12:08:29;;;;;;;11.05;2.65;;;7.40;99.90;;;;;;6221550;23;20146;-93
2023/02/26 12:11:04;;;;;;;18.85;3.42;;;7.30;99.90;;;;;;6221911;23;20142;-92
2023/02/26 12:13:36;;;;;;;18.58;2.20;;;7.30;99.90;;;;;;6225379;23;20020;-93
2023/02/26 12:16:23;;;;;;;9.80;2.20;;;7.20;99.90;;;;;;6227475;23;20016;-91
2023/02/26 12:19:26;;;;;;;14.77;2.15;;;7.20;99.90;;;;;;6255946;23;20058;-92
2023/02/26 12:22:02;;;;;;;13.65;2.10;;;7.20;99.90;;;;;;6242598;23;20030;-93
2023/02/26 12:24:48;;;;;;;15.35;2.88;;;7.10;99.90;;;;;;6265567;23;20004;-90
2023/02/26 12:27:43;;;;;;;15.02;2.15;;;7.10;99.90;;;;;;6238350;23;20012;-88
2023/02/26 12:30:33;;;;;;;10.57;1.98;;;7.10;99.90;;;;;;6266766;23;20023;-93
2023/02/26 12:33:23;;;;;;;9.48;2.65;;;7.10;99.90;;;;;;6261693;23;20064;-92
2023/02/26 12:35:58;;;;;;;9.10;1.80;;;7.20;99.90;;;;;;6230786;23;20035;-93
2023/02/26 12:38:59;;;;;;;7.85;2.00;;;7.20;99.90;;;;;;6248748;23;19996;-93
2023/02/26 12:41:39;;;;;;;15.25;2.55;;;7.10;99.90;;;;;;6225522;23;20006;-94
2023/02/26 12:44:30;;;;;;;7.13;1.65;;;7.00;99.90;;;;;;6225944;23;20172;-93
2023/02/26 12:47:17;;;;;;;11.38;2.17;;;6.90;99.90;;;;;;6229455;23;20020;-96
2023/02/26 12:50:31;;;;;;;13.88;2.10;;;6.90;99.90;;;;;;6233161;23;20004;-91
2023/02/26 12:53:26;;;;;;;14.00;2.50;;;6.80;99.90;;;;;;6231368;23;20016;-92
2023/02/26 12:56:00;;;;;;;8.27;2.35;;;6.70;99.90;;;;;;6231533;23;20004;-93
2023/02/26 12:58:52;;;;;;;11.85;2.53;;;6.70;99.90;;;;;;6249976;23;20004;-94
2023/02/26 13:01:37;;;;;;;15.48;3.92;;;6.60;99.90;;;;;;6250810;23;20000;-96
2023/02/26 13:04:36;;;;;;;11.63;2.35;;;6.60;99.90;;;;;;6234558;23;20026;-92
2023/02/26 13:07:35;;;;;;;11.48;2.38;;;6.60;99.90;;;;;;6241930;23;20047;-94
2023/02/26 13:10:17;;;;;;;11.93;2.88;;;6.70;99.90;;;;;;6267392;23;20011;-96
2023/02/26 13:13:20;;;;;;;12.15;1.63;;;6.90;99.90;;;;;;6240978;23;20126;-93
2023/02/26 13:16:09;;;;;;;8.02;1.48;;;7.10;99.90;;;;;;6240746;23;20008;-92
2023/02/26 13:18:53;;;;;;;16.20;1.70;;;7.30;99.90;;;;;;6267521;23;20000;-95